Plum Bayou, Arkansas
Current Conditions -  °F | °C
As of 2:53 PM on Saturday 20 Dec 2014 (Local Time) from KPBF Reporting Station
Clear Clear  
Wind Chill: 50°   Ceiling: Unl
Heat Index: 50°   Visibility: 10mi
Dew Point: 36°   Wind: 7mph
Humidity: 59%   Direction: 60°ENE
Pressure: 30.21"   Gusts: NA
Location:  34.4504°N, 92.034°W
Report Text: KPBF 202053Z AUTO 06006KT 10SM CLR 10/02 A3021 RMK AO2 SLP228 T01000022 56020
Loading
Personal Weather Stations






























Interactive Weather Map New forecast layout! Learn more

10-Day Weather Forecast

Advertisements
Track Severe Weather on mobile